Aviation Digital Data Service (ADDS)

Output produced by METARs form (0419 UTC 16 April 2014)
found at http://aviationweather.gov/adds/metars/
 
KCAR 160352Z 1604/1624 25009G16KT 6SM -RA BR SCT008 OVC035 WS020/20050KT 
     FM160500 29009KT 2SM -RASN BR OVC008 
     FM160600 31012G20KT 1 1/2SM -SN BR OVC012 
     FM160900 30017G25KT 5SM -SHSN OVC018 
     FM161300 30021G29KT P6SM BKN030 
     FM161600 30016G24KT P6SM SCT040 
     FM162300 30009KT P6SM SCT250